sensor_id;sensor_type;location;lat;lon;timestamp;temperature;humidity
47606;DHT22;55448;51.330;4.946;2022-08-21T00:01:24;15.50;99.90
47606;DHT22;55448;51.330;4.946;2022-08-21T00:03:51;15.50;99.90
47606;DHT22;55448;51.330;4.946;2022-08-21T00:06:17;15.60;99.90
47606;DHT22;55448;51.330;4.946;2022-08-21T00:08:43;15.50;99.90
47606;DHT22;55448;51.330;4.946;2022-08-21T00:11:09;15.40;99.90
47606;DHT22;55448;51.330;4.946;2022-08-21T00:13:36;15.40;99.90
47606;DHT22;55448;51.330;4.946;2022-08-21T00:16:02;15.30;99.90
47606;DHT22;55448;51.330;4.946;2022-08-21T00:18:28;15.20;99.90
47606;DHT22;55448;51.330;4.946;2022-08-21T00:20:54;15.20;99.90
47606;DHT22;55448;51.330;4.946;2022-08-21T00:23:20;15.40;99.90
47606;DHT22;55448;51.330;4.946;2022-08-21T00:25:46;15.40;99.90
47606;DHT22;55448;51.330;4.946;2022-08-21T00:28:12;15.60;99.90
47606;DHT22;55448;51.330;4.946;2022-08-21T00:30:39;15.60;99.90
47606;DHT22;55448;51.330;4.946;2022-08-21T00:33:06;15.50;99.90
47606;DHT22;55448;51.330;4.946;2022-08-21T00:35:35;15.30;99.90
47606;DHT22;55448;51.330;4.946;2022-08-21T00:38:04;15.20;99.90
47606;DHT22;55448;51.330;4.946;2022-08-21T00:40:37;15.10;99.90
47606;DHT22;55448;51.330;4.946;2022-08-21T00:43:04;15.20;99.90
47606;DHT22;55448;51.330;4.946;2022-08-21T00:45:31;15.30;99.90
47606;DHT22;55448;51.330;4.946;2022-08-21T00:47:57;15.40;99.90
47606;DHT22;55448;51.330;4.946;2022-08-21T00:50:28;15.20;99.90
47606;DHT22;55448;51.330;4.946;2022-08-21T00:52:54;15.00;99.90
47606;DHT22;55448;51.330;4.946;2022-08-21T00:55:22;15.00;99.90
47606;DHT22;55448;51.330;4.946;2022-08-21T00:57:52;15.10;99.90
47606;DHT22;55448;51.330;4.946;2022-08-21T01:00:27;15.20;99.90
47606;DHT22;55448;51.330;4.946;2022-08-21T01:02:57;15.50;99.90
47606;DHT22;55448;51.330;4.946;2022-08-21T01:05:23;15.60;99.90
47606;DHT22;55448;51.330;4.946;2022-08-21T01:07:48;15.60;99.90
47606;DHT22;55448;51.330;4.946;2022-08-21T01:10:15;15.70;99.90
47606;DHT22;55448;51.330;4.946;2022-08-21T01:12:41;15.80;99.90
47606;DHT22;55448;51.330;4.946;2022-08-21T01:15:08;15.80;99.90
47606;DHT22;55448;51.330;4.946;2022-08-21T01:17:35;15.80;99.90
47606;DHT22;55448;51.330;4.946;2022-08-21T01:20:04;15.80;99.90
47606;DHT22;55448;51.330;4.946;2022-08-21T01:22:31;15.80;99.90
47606;DHT22;55448;51.330;4.946;2022-08-21T01:24:57;15.70;99.90
47606;DHT22;55448;51.330;4.946;2022-08-21T01:27:22;15.80;99.90
47606;DHT22;55448;51.330;4.946;2022-08-21T01:29:54;15.70;99.90
47606;DHT22;55448;51.330;4.946;2022-08-21T01:32:22;15.80;99.90
47606;DHT22;55448;51.330;4.946;2022-08-21T01:34:49;15.70;99.90
47606;DHT22;55448;51.330;4.946;2022-08-21T01:37:16;15.70;99.90
47606;DHT22;55448;51.330;4.946;2022-08-21T01:39:42;15.70;99.90
47606;DHT22;55448;51.330;4.946;2022-08-21T01:42:08;15.70;99.90
47606;DHT22;55448;51.330;4.946;2022-08-21T01:44:34;15.60;99.90
47606;DHT22;55448;51.330;4.946;2022-08-21T01:47:04;15.50;99.90
47606;DHT22;55448;51.330;4.946;2022-08-21T01:49:30;15.60;99.90
47606;DHT22;55448;51.330;4.946;2022-08-21T01:51:56;15.50;99.90
47606;DHT22;55448;51.330;4.946;2022-08-21T01:54:22;15.40;99.90
47606;DHT22;55448;51.330;4.946;2022-08-21T01:56:50;15.40;99.90
47606;DHT22;55448;51.330;4.946;2022-08-21T01:59:16;15.40;99.90
47606;DHT22;55448;51.330;4.946;2022-08-21T02:01:42;15.50;99.90
47606;DHT22;55448;51.330;4.946;2022-08-21T02:04:09;15.50;99.90
47606;DHT22;55448;51.330;4.946;2022-08-21T02:06:37;15.60;99.90
47606;DHT22;55448;51.330;4.946;2022-08-21T02:09:08;15.60;99.90
47606;DHT22;55448;51.330;4.946;2022-08-21T02:11:34;15.60;99.90
47606;DHT22;55448;51.330;4.946;2022-08-21T02:14:00;15.60;99.90
47606;DHT22;55448;51.330;4.946;2022-08-21T02:16:26;15.70;99.90
47606;DHT22;55448;51.330;4.946;2022-08-21T02:18:52;15.60;99.90
47606;DHT22;55448;51.330;4.946;2022-08-21T02:21:17;15.60;99.90
47606;DHT22;55448;51.330;4.946;2022-08-21T02:23:43;15.60;99.90
47606;DHT22;55448;51.330;4.946;2022-08-21T02:26:10;15.50;99.90
47606;DHT22;55448;51.330;4.946;2022-08-21T02:28:37;15.40;99.90
47606;DHT22;55448;51.330;4.946;2022-08-21T02:31:04;15.50;99.90
47606;DHT22;55448;51.330;4.946;2022-08-21T02:33:30;15.40;99.90
47606;DHT22;55448;51.330;4.946;2022-08-21T02:35:55;15.30;99.90
47606;DHT22;55448;51.330;4.946;2022-08-21T02:38:31;15.30;99.90
47606;DHT22;55448;51.330;4.946;2022-08-21T02:40:59;15.30;99.90
47606;DHT22;55448;51.330;4.946;2022-08-21T02:43:26;15.20;99.90
47606;DHT22;55448;51.330;4.946;2022-08-21T02:45:53;15.20;99.90
47606;DHT22;55448;51.330;4.946;2022-08-21T02:48:23;15.20;99.90
47606;DHT22;55448;51.330;4.946;2022-08-21T02:50:57;15.20;99.90
47606;DHT22;55448;51.330;4.946;2022-08-21T02:53:24;15.10;99.90
47606;DHT22;55448;51.330;4.946;2022-08-21T02:55:51;15.10;99.90
47606;DHT22;55448;51.330;4.946;2022-08-21T02:58:21;15.00;99.90
47606;DHT22;55448;51.330;4.946;2022-08-21T03:00:47;15.00;99.90
47606;DHT22;55448;51.330;4.946;2022-08-21T03:03:13;15.00;99.90
47606;DHT22;55448;51.330;4.946;2022-08-21T03:05:40;14.90;99.90
47606;DHT22;55448;51.330;4.946;2022-08-21T03:08:07;14.90;99.90
47606;DHT22;55448;51.330;4.946;2022-08-21T03:10:36;14.80;99.90
47606;DHT22;55448;51.330;4.946;2022-08-21T03:13:02;14.80;99.90
47606;DHT22;55448;51.330;4.946;2022-08-21T03:15:29;14.90;99.90
47606;DHT22;55448;51.330;4.946;2022-08-21T03:17:55;14.80;99.90
47606;DHT22;55448;51.330;4.946;2022-08-21T03:20:23;14.70;99.90
47606;DHT22;55448;51.330;4.946;2022-08-21T03:22:50;14.70;99.90
47606;DHT22;55448;51.330;4.946;2022-08-21T03:25:16;14.60;99.90
47606;DHT22;55448;51.330;4.946;2022-08-21T03:27:43;14.70;99.90
47606;DHT22;55448;51.330;4.946;2022-08-21T03:30:09;14.70;99.90
47606;DHT22;55448;51.330;4.946;2022-08-21T03:32:35;14.80;99.90
47606;DHT22;55448;51.330;4.946;2022-08-21T03:35:02;14.80;99.90
47606;DHT22;55448;51.330;4.946;2022-08-21T03:37:28;14.70;99.90
47606;DHT22;55448;51.330;4.946;2022-08-21T03:39:54;14.70;99.90
47606;DHT22;55448;51.330;4.946;2022-08-21T03:42:20;14.60;99.90
47606;DHT22;55448;51.330;4.946;2022-08-21T03:44:46;14.60;99.90
47606;DHT22;55448;51.330;4.946;2022-08-21T03:47:11;14.60;99.90
47606;DHT22;55448;51.330;4.946;2022-08-21T03:49:37;14.60;99.90
47606;DHT22;55448;51.330;4.946;2022-08-21T03:52:04;14.60;99.90
47606;DHT22;55448;51.330;4.946;2022-08-21T03:54:30;14.50;99.90
47606;DHT22;55448;51.330;4.946;2022-08-21T03:56:56;14.50;99.90
47606;DHT22;55448;51.330;4.946;2022-08-21T03:59:22;14.60;99.90
47606;DHT22;55448;51.330;4.946;2022-08-21T04:01:55;14.60;99.90
47606;DHT22;55448;51.330;4.946;2022-08-21T04:04:21;14.60;99.90
47606;DHT22;55448;51.330;4.946;2022-08-21T04:06:47;14.50;99.90
47606;DHT22;55448;51.330;4.946;2022-08-21T04:09:13;14.40;99.90
47606;DHT22;55448;51.330;4.946;2022-08-21T04:11:38;14.40;99.90
47606;DHT22;55448;51.330;4.946;2022-08-21T04:14:04;14.40;99.90
47606;DHT22;55448;51.330;4.946;2022-08-21T04:16:30;14.40;99.90
47606;DHT22;55448;51.330;4.946;2022-08-21T04:18:56;14.50;99.90
47606;DHT22;55448;51.330;4.946;2022-08-21T04:21:22;14.40;99.90
47606;DHT22;55448;51.330;4.946;2022-08-21T04:23:48;14.40;99.90
47606;DHT22;55448;51.330;4.946;2022-08-21T04:26:14;14.30;99.90
47606;DHT22;55448;51.330;4.946;2022-08-21T04:28:41;14.20;99.90
47606;DHT22;55448;51.330;4.946;2022-08-21T04:31:08;14.30;99.90
47606;DHT22;55448;51.330;4.946;2022-08-21T04:33:34;14.30;99.90
47606;DHT22;55448;51.330;4.946;2022-08-21T04:36:00;14.30;99.90
47606;DHT22;55448;51.330;4.946;2022-08-21T04:38:25;14.30;99.90
47606;DHT22;55448;51.330;4.946;2022-08-21T04:40:52;14.30;99.90
47606;DHT22;55448;51.330;4.946;2022-08-21T04:43:18;14.30;99.90
47606;DHT22;55448;51.330;4.946;2022-08-21T04:45:47;14.30;99.90
47606;DHT22;55448;51.330;4.946;2022-08-21T04:48:15;14.20;99.90
47606;DHT22;55448;51.330;4.946;2022-08-21T04:50:45;14.10;99.90
47606;DHT22;55448;51.330;4.946;2022-08-21T04:53:19;14.20;99.90
47606;DHT22;55448;51.330;4.946;2022-08-21T04:55:47;14.20;99.90
47606;DHT22;55448;51.330;4.946;2022-08-21T04:58:15;14.10;99.90
47606;DHT22;55448;51.330;4.946;2022-08-21T05:00:43;14.10;99.90
47606;DHT22;55448;51.330;4.946;2022-08-21T05:03:09;14.10;99.90
47606;DHT22;55448;51.330;4.946;2022-08-21T05:05:36;14.10;99.90
47606;DHT22;55448;51.330;4.946;2022-08-21T05:08:03;14.00;99.90
47606;DHT22;55448;51.330;4.946;2022-08-21T05:10:29;14.10;99.90
47606;DHT22;55448;51.330;4.946;2022-08-21T05:12:57;14.00;99.90
47606;DHT22;55448;51.330;4.946;2022-08-21T05:15:23;14.00;99.90
47606;DHT22;55448;51.330;4.946;2022-08-21T05:17:49;14.00;99.90
47606;DHT22;55448;51.330;4.946;2022-08-21T05:20:16;14.10;99.90
47606;DHT22;55448;51.330;4.946;2022-08-21T05:22:41;14.00;99.90
47606;DHT22;55448;51.330;4.946;2022-08-21T05:25:08;14.10;99.90
47606;DHT22;55448;51.330;4.946;2022-08-21T05:27:35;14.20;99.90
47606;DHT22;55448;51.330;4.946;2022-08-21T05:30:01;14.30;99.90
47606;DHT22;55448;51.330;4.946;2022-08-21T05:32:27;14.40;99.90
47606;DHT22;55448;51.330;4.946;2022-08-21T05:34:54;14.50;99.90
47606;DHT22;55448;51.330;4.946;2022-08-21T05:37:20;14.70;99.90
47606;DHT22;55448;51.330;4.946;2022-08-21T05:39:46;14.80;99.90
47606;DHT22;55448;51.330;4.946;2022-08-21T05:42:12;14.80;99.90
47606;DHT22;55448;51.330;4.946;2022-08-21T05:44:38;14.90;99.90
47606;DHT22;55448;51.330;4.946;2022-08-21T05:47:08;15.10;99.90
47606;DHT22;55448;51.330;4.946;2022-08-21T05:49:35;15.20;99.90
47606;DHT22;55448;51.330;4.946;2022-08-21T05:52:02;15.20;99.90
47606;DHT22;55448;51.330;4.946;2022-08-21T05:54:28;15.30;99.90
47606;DHT22;55448;51.330;4.946;2022-08-21T05:56:54;15.30;99.90
47606;DHT22;55448;51.330;4.946;2022-08-21T05:59:19;15.50;99.90
47606;DHT22;55448;51.330;4.946;2022-08-21T06:01:45;15.60;99.90
47606;DHT22;55448;51.330;4.946;2022-08-21T06:04:12;15.80;99.90
47606;DHT22;55448;51.330;4.946;2022-08-21T06:06:38;15.90;99.90
47606;DHT22;55448;51.330;4.946;2022-08-21T06:09:04;15.90;99.90
47606;DHT22;55448;51.330;4.946;2022-08-21T06:11:31;16.10;99.90
47606;DHT22;55448;51.330;4.946;2022-08-21T06:13:58;16.30;99.90
47606;DHT22;55448;51.330;4.946;2022-08-21T06:16:24;16.50;99.90
47606;DHT22;55448;51.330;4.946;2022-08-21T06:18:50;16.60;99.90
47606;DHT22;55448;51.330;4.946;2022-08-21T06:21:15;16.70;99.90
47606;DHT22;55448;51.330;4.946;2022-08-21T06:23:42;16.80;99.90
47606;DHT22;55448;51.330;4.946;2022-08-21T06:26:10;16.80;99.90
47606;DHT22;55448;51.330;4.946;2022-08-21T06:28:36;16.90;99.90
47606;DHT22;55448;51.330;4.946;2022-08-21T06:31:14;17.10;99.90
47606;DHT22;55448;51.330;4.946;2022-08-21T06:33:41;17.20;99.90
47606;DHT22;55448;51.330;4.946;2022-08-21T06:36:07;17.20;99.90
47606;DHT22;55448;51.330;4.946;2022-08-21T06:38:33;17.20;99.90
47606;DHT22;55448;51.330;4.946;2022-08-21T06:40:58;17.40;99.90
47606;DHT22;55448;51.330;4.946;2022-08-21T06:43:24;17.60;99.90
47606;DHT22;55448;51.330;4.946;2022-08-21T06:45:50;17.50;99.90
47606;DHT22;55448;51.330;4.946;2022-08-21T06:48:16;17.50;99.90
47606;DHT22;55448;51.330;4.946;2022-08-21T06:50:41;17.60;99.90
47606;DHT22;55448;51.330;4.946;2022-08-21T06:53:10;17.70;99.90
47606;DHT22;55448;51.330;4.946;2022-08-21T06:55:37;17.90;99.90
47606;DHT22;55448;51.330;4.946;2022-08-21T06:58:04;18.00;99.90
47606;DHT22;55448;51.330;4.946;2022-08-21T07:00:30;18.20;99.90
47606;DHT22;55448;51.330;4.946;2022-08-21T07:02:56;18.40;99.90
47606;DHT22;55448;51.330;4.946;2022-08-21T07:05:25;18.30;99.90
47606;DHT22;55448;51.330;4.946;2022-08-21T07:07:51;18.20;99.90
47606;DHT22;55448;51.330;4.946;2022-08-21T07:10:17;18.30;99.90
47606;DHT22;55448;51.330;4.946;2022-08-21T07:12:43;18.60;99.90
47606;DHT22;55448;51.330;4.946;2022-08-21T07:15:09;18.90;99.90
47606;DHT22;55448;51.330;4.946;2022-08-21T07:17:35;19.10;99.90
47606;DHT22;55448;51.330;4.946;2022-08-21T07:20:02;19.10;99.90
47606;DHT22;55448;51.330;4.946;2022-08-21T07:22:28;19.10;99.90
47606;DHT22;55448;51.330;4.946;2022-08-21T07:24:54;19.20;99.90
47606;DHT22;55448;51.330;4.946;2022-08-21T07:27:20;19.20;99.90
47606;DHT22;55448;51.330;4.946;2022-08-21T07:29:46;19.40;99.90
47606;DHT22;55448;51.330;4.946;2022-08-21T07:32:12;19.30;99.90
47606;DHT22;55448;51.330;4.946;2022-08-21T07:34:38;19.30;99.90
47606;DHT22;55448;51.330;4.946;2022-08-21T07:37:04;19.30;99.90
47606;DHT22;55448;51.330;4.946;2022-08-21T07:39:29;19.20;99.90
47606;DHT22;55448;51.330;4.946;2022-08-21T07:41:55;19.50;99.90
47606;DHT22;55448;51.330;4.946;2022-08-21T07:44:21;19.60;99.90
47606;DHT22;55448;51.330;4.946;2022-08-21T07:46:46;20.00;99.90
47606;DHT22;55448;51.330;4.946;2022-08-21T07:49:12;19.90;99.90
47606;DHT22;55448;51.330;4.946;2022-08-21T07:51:38;19.90;99.90
47606;DHT22;55448;51.330;4.946;2022-08-21T07:54:04;20.10;99.90
47606;DHT22;55448;51.330;4.946;2022-08-21T07:56:30;20.10;99.90
47606;DHT22;55448;51.330;4.946;2022-08-21T07:58:57;19.90;99.90
47606;DHT22;55448;51.330;4.946;2022-08-21T08:01:23;19.80;99.90
47606;DHT22;55448;51.330;4.946;2022-08-21T08:03:49;19.80;99.90
47606;DHT22;55448;51.330;4.946;2022-08-21T08:06:16;19.90;99.90
47606;DHT22;55448;51.330;4.946;2022-08-21T08:08:44;20.20;99.90
47606;DHT22;55448;51.330;4.946;2022-08-21T08:11:11;20.40;99.90
47606;DHT22;55448;51.330;4.946;2022-08-21T08:13:46;20.50;99.90
47606;DHT22;55448;51.330;4.946;2022-08-21T08:16:13;20.80;99.90
47606;DHT22;55448;51.330;4.946;2022-08-21T08:18:39;20.60;99.90
47606;DHT22;55448;51.330;4.946;2022-08-21T08:21:05;20.60;99.90
47606;DHT22;55448;51.330;4.946;2022-08-21T08:23:31;20.80;99.90
47606;DHT22;55448;51.330;4.946;2022-08-21T08:25:58;21.20;99.90
47606;DHT22;55448;51.330;4.946;2022-08-21T08:28:24;21.20;99.90
47606;DHT22;55448;51.330;4.946;2022-08-21T08:30:50;21.30;99.90
47606;DHT22;55448;51.330;4.946;2022-08-21T08:33:17;21.50;99.90
47606;DHT22;55448;51.330;4.946;2022-08-21T08:35:45;21.50;99.90
47606;DHT22;55448;51.330;4.946;2022-08-21T08:38:11;21.40;99.90
47606;DHT22;55448;51.330;4.946;2022-08-21T08:43:32;21.20;99.90
47606;DHT22;55448;51.330;4.946;2022-08-21T08:46:02;21.10;99.90
47606;DHT22;55448;51.330;4.946;2022-08-21T08:51:01;20.90;99.90
47606;DHT22;55448;51.330;4.946;2022-08-21T08:53:32;21.00;99.90
47606;DHT22;55448;51.330;4.946;2022-08-21T08:56:00;21.00;99.90
47606;DHT22;55448;51.330;4.946;2022-08-21T08:58:31;21.00;99.90
47606;DHT22;55448;51.330;4.946;2022-08-21T09:00:57;21.40;99.90
47606;DHT22;55448;51.330;4.946;2022-08-21T09:03:25;22.30;98.80
47606;DHT22;55448;51.330;4.946;2022-08-21T09:06:09;22.50;98.30
47606;DHT22;55448;51.330;4.946;2022-08-21T09:11:29;22.70;96.90
47606;DHT22;55448;51.330;4.946;2022-08-21T09:25:26;22.60;95.90
47606;DHT22;55448;51.330;4.946;2022-08-21T09:27:53;22.60;96.00
47606;DHT22;55448;51.330;4.946;2022-08-21T09:30:26;22.60;96.30
47606;DHT22;55448;51.330;4.946;2022-08-21T09:32:52;22.70;95.50
47606;DHT22;55448;51.330;4.946;2022-08-21T09:35:20;22.80;96.10
47606;DHT22;55448;51.330;4.946;2022-08-21T09:37:55;22.60;95.50
47606;DHT22;55448;51.330;4.946;2022-08-21T09:40:28;22.50;96.10
47606;DHT22;55448;51.330;4.946;2022-08-21T09:45:27;22.90;94.60
47606;DHT22;55448;51.330;4.946;2022-08-21T09:47:53;23.00;95.70
47606;DHT22;55448;51.330;4.946;2022-08-21T09:50:25;23.20;95.80
47606;DHT22;55448;51.330;4.946;2022-08-21T09:52:58;23.40;95.10
47606;DHT22;55448;51.330;4.946;2022-08-21T09:55:34;23.40;95.00
47606;DHT22;55448;51.330;4.946;2022-08-21T09:58:30;23.70;93.70
47606;DHT22;55448;51.330;4.946;2022-08-21T10:00:59;24.00;93.70
47606;DHT22;55448;51.330;4.946;2022-08-21T10:03:25;23.80;94.00
47606;DHT22;55448;51.330;4.946;2022-08-21T10:06:00;23.60;94.00
47606;DHT22;55448;51.330;4.946;2022-08-21T10:08:28;23.50;94.90
47606;DHT22;55448;51.330;4.946;2022-08-21T10:11:23;24.30;92.40
47606;DHT22;55448;51.330;4.946;2022-08-21T10:14:14;24.30;92.70
47606;DHT22;55448;51.330;4.946;2022-08-21T10:19:27;23.80;93.00
47606;DHT22;55448;51.330;4.946;2022-08-21T10:30:31;24.10;93.50
47606;DHT22;55448;51.330;4.946;2022-08-21T10:36:24;24.10;92.40
47606;DHT22;55448;51.330;4.946;2022-08-21T10:55:33;24.00;92.60
47606;DHT22;55448;51.330;4.946;2022-08-21T10:58:10;23.90;92.20
47606;DHT22;55448;51.330;4.946;2022-08-21T11:01:13;24.00;92.30
47606;DHT22;55448;51.330;4.946;2022-08-21T11:03:45;24.10;91.80
47606;DHT22;55448;51.330;4.946;2022-08-21T11:06:13;23.60;91.80
47606;DHT22;55448;51.330;4.946;2022-08-21T11:08:42;23.90;92.40
47606;DHT22;55448;51.330;4.946;2022-08-21T11:13:53;23.60;93.00
47606;DHT22;55448;51.330;4.946;2022-08-21T11:25:34;23.90;91.30
47606;DHT22;55448;51.330;4.946;2022-08-21T11:28:28;24.20;91.30
47606;DHT22;55448;51.330;4.946;2022-08-21T11:39:07;25.10;85.80
47606;DHT22;55448;51.330;4.946;2022-08-21T11:41:47;24.60;85.40
47606;DHT22;55448;51.330;4.946;2022-08-21T11:47:05;25.40;83.30
47606;DHT22;55448;51.330;4.946;2022-08-21T11:50:04;25.10;83.40
47606;DHT22;55448;51.330;4.946;2022-08-21T11:52:39;25.30;79.20
47606;DHT22;55448;51.330;4.946;2022-08-21T11:55:19;25.20;82.50
47606;DHT22;55448;51.330;4.946;2022-08-21T11:57:57;25.10;84.40
47606;DHT22;55448;51.330;4.946;2022-08-21T12:00:29;24.70;83.30
47606;DHT22;55448;51.330;4.946;2022-08-21T12:03:05;25.40;83.80
47606;DHT22;55448;51.330;4.946;2022-08-21T12:05:39;25.20;81.00
47606;DHT22;55448;51.330;4.946;2022-08-21T12:08:12;25.10;83.20
47606;DHT22;55448;51.330;4.946;2022-08-21T12:10:47;25.50;82.60
47606;DHT22;55448;51.330;4.946;2022-08-21T12:13:28;25.10;82.10
47606;DHT22;55448;51.330;4.946;2022-08-21T12:16:06;24.90;82.30
47606;DHT22;55448;51.330;4.946;2022-08-21T12:18:33;25.10;83.40
47606;DHT22;55448;51.330;4.946;2022-08-21T12:23:59;25.10;85.10
47606;DHT22;55448;51.330;4.946;2022-08-21T12:26:24;25.30;82.50
47606;DHT22;55448;51.330;4.946;2022-08-21T12:29:02;25.90;81.20
47606;DHT22;55448;51.330;4.946;2022-08-21T12:31:28;26.00;82.70
47606;DHT22;55448;51.330;4.946;2022-08-21T12:33:58;26.50;80.10
47606;DHT22;55448;51.330;4.946;2022-08-21T12:36:40;26.40;78.10
47606;DHT22;55448;51.330;4.946;2022-08-21T12:39:19;25.90;79.60
47606;DHT22;55448;51.330;4.946;2022-08-21T12:41:55;26.00;79.90
47606;DHT22;55448;51.330;4.946;2022-08-21T12:44:43;26.20;79.80
47606;DHT22;55448;51.330;4.946;2022-08-21T12:47:25;26.10;77.10
47606;DHT22;55448;51.330;4.946;2022-08-21T12:50:15;25.60;80.30
47606;DHT22;55448;51.330;4.946;2022-08-21T12:52:50;25.60;80.30
47606;DHT22;55448;51.330;4.946;2022-08-21T12:55:29;25.50;79.80
47606;DHT22;55448;51.330;4.946;2022-08-21T12:57:56;25.40;80.80
47606;DHT22;55448;51.330;4.946;2022-08-21T13:00:24;25.50;79.10
47606;DHT22;55448;51.330;4.946;2022-08-21T13:02:50;25.40;79.40
47606;DHT22;55448;51.330;4.946;2022-08-21T13:05:33;25.60;77.70
47606;DHT22;55448;51.330;4.946;2022-08-21T13:08:04;26.10;76.90
47606;DHT22;55448;51.330;4.946;2022-08-21T13:10:32;26.20;74.70
47606;DHT22;55448;51.330;4.946;2022-08-21T13:13:02;26.80;70.10
47606;DHT22;55448;51.330;4.946;2022-08-21T13:15:29;26.90;70.80
47606;DHT22;55448;51.330;4.946;2022-08-21T13:17:55;26.10;72.50
47606;DHT22;55448;51.330;4.946;2022-08-21T13:20:47;26.10;74.70
47606;DHT22;55448;51.330;4.946;2022-08-21T13:23:30;26.40;74.90
47606;DHT22;55448;51.330;4.946;2022-08-21T13:25:56;26.90;72.20
47606;DHT22;55448;51.330;4.946;2022-08-21T13:28:22;27.10;70.70
47606;DHT22;55448;51.330;4.946;2022-08-21T13:30:51;27.60;71.10
47606;DHT22;55448;51.330;4.946;2022-08-21T13:33:19;27.60;70.50
47606;DHT22;55448;51.330;4.946;2022-08-21T13:36:07;26.80;70.60
47606;DHT22;55448;51.330;4.946;2022-08-21T13:38:36;26.80;71.80
47606;DHT22;55448;51.330;4.946;2022-08-21T13:41:29;26.70;71.60
47606;DHT22;55448;51.330;4.946;2022-08-21T13:44:21;26.70;71.10
47606;DHT22;55448;51.330;4.946;2022-08-21T13:46:48;26.60;72.60
47606;DHT22;55448;51.330;4.946;2022-08-21T13:49:18;27.00;72.80
47606;DHT22;55448;51.330;4.946;2022-08-21T13:51:45;27.40;71.40
47606;DHT22;55448;51.330;4.946;2022-08-21T13:54:51;27.60;70.80
47606;DHT22;55448;51.330;4.946;2022-08-21T13:57:19;27.20;71.80
47606;DHT22;55448;51.330;4.946;2022-08-21T13:59:45;26.80;71.20
47606;DHT22;55448;51.330;4.946;2022-08-21T14:02:20;26.00;73.40
47606;DHT22;55448;51.330;4.946;2022-08-21T14:05:36;26.20;72.00
47606;DHT22;55448;51.330;4.946;2022-08-21T14:07:38;26.50;71.20
47606;DHT22;55448;51.330;4.946;2022-08-21T14:10:08;26.50;69.30
47606;DHT22;55448;51.330;4.946;2022-08-21T14:12:41;26.30;70.50
47606;DHT22;55448;51.330;4.946;2022-08-21T14:15:09;26.50;70.80
47606;DHT22;55448;51.330;4.946;2022-08-21T14:17:39;26.50;71.00
47606;DHT22;55448;51.330;4.946;2022-08-21T14:20:10;26.50;69.80
47606;DHT22;55448;51.330;4.946;2022-08-21T14:22:41;26.30;69.60
47606;DHT22;55448;51.330;4.946;2022-08-21T14:25:10;26.10;70.00
47606;DHT22;55448;51.330;4.946;2022-08-21T14:27:43;26.00;72.30
47606;DHT22;55448;51.330;4.946;2022-08-21T14:30:19;26.30;70.10
47606;DHT22;55448;51.330;4.946;2022-08-21T14:32:45;26.30;69.30
47606;DHT22;55448;51.330;4.946;2022-08-21T14:35:12;26.40;70.20
47606;DHT22;55448;51.330;4.946;2022-08-21T14:37:41;26.80;69.40
47606;DHT22;55448;51.330;4.946;2022-08-21T14:40:08;27.50;68.20
47606;DHT22;55448;51.330;4.946;2022-08-21T14:42:34;27.80;66.80
47606;DHT22;55448;51.330;4.946;2022-08-21T14:45:07;27.70;67.90
47606;DHT22;55448;51.330;4.946;2022-08-21T14:47:33;27.40;68.20
47606;DHT22;55448;51.330;4.946;2022-08-21T14:49:59;27.40;68.00
47606;DHT22;55448;51.330;4.946;2022-08-21T14:52:25;27.30;67.10
47606;DHT22;55448;51.330;4.946;2022-08-21T14:54:50;27.40;66.30
47606;DHT22;55448;51.330;4.946;2022-08-21T14:57:16;27.60;66.40
47606;DHT22;55448;51.330;4.946;2022-08-21T14:59:42;27.10;67.40
47606;DHT22;55448;51.330;4.946;2022-08-21T15:02:08;26.70;69.10
47606;DHT22;55448;51.330;4.946;2022-08-21T15:04:35;26.20;68.60
47606;DHT22;55448;51.330;4.946;2022-08-21T15:07:01;26.20;70.20
47606;DHT22;55448;51.330;4.946;2022-08-21T15:09:28;26.40;70.30
47606;DHT22;55448;51.330;4.946;2022-08-21T15:11:57;26.20;68.50
47606;DHT22;55448;51.330;4.946;2022-08-21T15:14:28;26.00;70.20
47606;DHT22;55448;51.330;4.946;2022-08-21T15:16:55;25.90;70.30
47606;DHT22;55448;51.330;4.946;2022-08-21T15:19:20;26.00;69.20
47606;DHT22;55448;51.330;4.946;2022-08-21T15:21:46;26.10;68.20
47606;DHT22;55448;51.330;4.946;2022-08-21T15:24:12;26.00;68.40
47606;DHT22;55448;51.330;4.946;2022-08-21T15:26:38;26.30;70.30
47606;DHT22;55448;51.330;4.946;2022-08-21T15:29:06;26.80;67.40
47606;DHT22;55448;51.330;4.946;2022-08-21T15:31:32;26.90;66.80
47606;DHT22;55448;51.330;4.946;2022-08-21T15:33:58;27.00;67.90
47606;DHT22;55448;51.330;4.946;2022-08-21T15:36:23;26.70;67.80
47606;DHT22;55448;51.330;4.946;2022-08-21T15:38:49;26.90;66.80
47606;DHT22;55448;51.330;4.946;2022-08-21T15:41:15;26.50;68.90
47606;DHT22;55448;51.330;4.946;2022-08-21T15:43:45;26.60;68.20
47606;DHT22;55448;51.330;4.946;2022-08-21T15:46:13;26.50;68.60
47606;DHT22;55448;51.330;4.946;2022-08-21T15:48:39;26.30;69.90
47606;DHT22;55448;51.330;4.946;2022-08-21T15:51:05;26.30;69.10
47606;DHT22;55448;51.330;4.946;2022-08-21T15:53:31;26.20;69.60
47606;DHT22;55448;51.330;4.946;2022-08-21T15:56:02;26.00;68.70
47606;DHT22;55448;51.330;4.946;2022-08-21T15:58:28;25.70;68.50
47606;DHT22;55448;51.330;4.946;2022-08-21T16:00:54;25.40;69.20
47606;DHT22;55448;51.330;4.946;2022-08-21T16:03:20;25.80;69.00
47606;DHT22;55448;51.330;4.946;2022-08-21T16:05:48;25.80;70.50
47606;DHT22;55448;51.330;4.946;2022-08-21T16:08:15;25.60;70.40
47606;DHT22;55448;51.330;4.946;2022-08-21T16:10:41;25.60;71.00
47606;DHT22;55448;51.330;4.946;2022-08-21T16:13:16;25.30;70.20
47606;DHT22;55448;51.330;4.946;2022-08-21T16:15:43;25.30;70.50
47606;DHT22;55448;51.330;4.946;2022-08-21T16:18:10;25.20;70.00
47606;DHT22;55448;51.330;4.946;2022-08-21T16:20:36;25.40;70.70
47606;DHT22;55448;51.330;4.946;2022-08-21T16:23:01;25.80;69.20
47606;DHT22;55448;51.330;4.946;2022-08-21T16:25:28;25.70;70.30
47606;DHT22;55448;51.330;4.946;2022-08-21T16:27:59;25.70;70.10
47606;DHT22;55448;51.330;4.946;2022-08-21T16:30:26;26.00;69.30
47606;DHT22;55448;51.330;4.946;2022-08-21T16:32:53;26.30;69.50
47606;DHT22;55448;51.330;4.946;2022-08-21T16:35:20;26.30;69.00
47606;DHT22;55448;51.330;4.946;2022-08-21T16:37:46;26.40;68.60
47606;DHT22;55448;51.330;4.946;2022-08-21T16:40:13;26.30;69.80
47606;DHT22;55448;51.330;4.946;2022-08-21T16:42:40;26.20;68.90
47606;DHT22;55448;51.330;4.946;2022-08-21T16:45:09;26.20;70.20
47606;DHT22;55448;51.330;4.946;2022-08-21T16:47:36;25.80;69.80
47606;DHT22;55448;51.330;4.946;2022-08-21T16:50:03;25.60;71.10
47606;DHT22;55448;51.330;4.946;2022-08-21T16:52:29;25.30;71.20
47606;DHT22;55448;51.330;4.946;2022-08-21T16:54:55;25.00;71.90
47606;DHT22;55448;51.330;4.946;2022-08-21T16:57:21;24.90;72.30
47606;DHT22;55448;51.330;4.946;2022-08-21T16:59:46;24.70;73.10